sensor_id;sensor_type;location;lat;lon;timestamp;temperature;humidity
10566;DHT22;5331;48.148;16.326;2023-06-24T00:02:20;18.40;1.00
10566;DHT22;5331;48.148;16.326;2023-06-24T00:04:49;18.30;1.00
10566;DHT22;5331;48.148;16.326;2023-06-24T00:07:16;18.30;1.00
10566;DHT22;5331;48.148;16.326;2023-06-24T00:09:44;18.30;1.00
10566;DHT22;5331;48.148;16.326;2023-06-24T00:12:11;18.30;1.00
10566;DHT22;5331;48.148;16.326;2023-06-24T00:14:44;18.20;1.00
10566;DHT22;5331;48.148;16.326;2023-06-24T00:17:11;18.20;1.00
10566;DHT22;5331;48.148;16.326;2023-06-24T00:19:38;18.30;1.00
10566;DHT22;5331;48.148;16.326;2023-06-24T00:22:05;18.20;1.00
10566;DHT22;5331;48.148;16.326;2023-06-24T00:24:32;18.20;1.00
10566;DHT22;5331;48.148;16.326;2023-06-24T00:27:00;18.10;1.00
10566;DHT22;5331;48.148;16.326;2023-06-24T00:29:27;18.10;1.00
10566;DHT22;5331;48.148;16.326;2023-06-24T00:31:54;18.00;1.00
10566;DHT22;5331;48.148;16.326;2023-06-24T00:34:21;18.00;1.00
10566;DHT22;5331;48.148;16.326;2023-06-24T00:36:49;18.00;1.00
10566;DHT22;5331;48.148;16.326;2023-06-24T00:39:16;18.00;1.00
10566;DHT22;5331;48.148;16.326;2023-06-24T00:41:43;18.00;1.00
10566;DHT22;5331;48.148;16.326;2023-06-24T00:44:12;18.00;1.00
10566;DHT22;5331;48.148;16.326;2023-06-24T00:46:38;18.10;1.00
10566;DHT22;5331;48.148;16.326;2023-06-24T00:49:06;18.10;1.00
10566;DHT22;5331;48.148;16.326;2023-06-24T00:51:33;18.00;1.00
10566;DHT22;5331;48.148;16.326;2023-06-24T00:54:01;18.10;1.00
10566;DHT22;5331;48.148;16.326;2023-06-24T00:56:31;18.10;1.00
10566;DHT22;5331;48.148;16.326;2023-06-24T00:59:00;18.10;1.00
10566;DHT22;5331;48.148;16.326;2023-06-24T01:01:33;18.00;1.00
10566;DHT22;5331;48.148;16.326;2023-06-24T01:04:01;18.00;1.00
10566;DHT22;5331;48.148;16.326;2023-06-24T01:06:29;18.10;1.00
10566;DHT22;5331;48.148;16.326;2023-06-24T01:08:56;18.10;1.00
10566;DHT22;5331;48.148;16.326;2023-06-24T01:11:25;18.00;1.00
10566;DHT22;5331;48.148;16.326;2023-06-24T01:13:53;18.00;1.00
10566;DHT22;5331;48.148;16.326;2023-06-24T01:16:24;18.00;1.00
10566;DHT22;5331;48.148;16.326;2023-06-24T01:18:59;18.00;1.00
10566;DHT22;5331;48.148;16.326;2023-06-24T01:21:38;18.00;1.00
10566;DHT22;5331;48.148;16.326;2023-06-24T01:24:28;18.00;1.00
10566;DHT22;5331;48.148;16.326;2023-06-24T01:30:21;18.00;1.00
10566;DHT22;5331;48.148;16.326;2023-06-24T01:32:54;18.00;1.00
10566;DHT22;5331;48.148;16.326;2023-06-24T01:35:25;18.00;1.00
10566;DHT22;5331;48.148;16.326;2023-06-24T01:37:55;18.00;1.00
10566;DHT22;5331;48.148;16.326;2023-06-24T01:40:27;18.00;1.00
10566;DHT22;5331;48.148;16.326;2023-06-24T01:42:57;18.00;1.00
10566;DHT22;5331;48.148;16.326;2023-06-24T01:45:26;18.00;1.00
10566;DHT22;5331;48.148;16.326;2023-06-24T01:48:00;18.00;1.00
10566;DHT22;5331;48.148;16.326;2023-06-24T01:50:32;18.00;1.00
10566;DHT22;5331;48.148;16.326;2023-06-24T01:53:02;18.10;1.00
10566;DHT22;5331;48.148;16.326;2023-06-24T01:55:32;17.90;1.00
10566;DHT22;5331;48.148;16.326;2023-06-24T01:58:02;18.00;1.00
10566;DHT22;5331;48.148;16.326;2023-06-24T02:00:29;18.10;1.00
10566;DHT22;5331;48.148;16.326;2023-06-24T02:02:59;18.00;1.00
10566;DHT22;5331;48.148;16.326;2023-06-24T02:05:27;18.00;1.00
10566;DHT22;5331;48.148;16.326;2023-06-24T02:07:55;18.00;1.00
10566;DHT22;5331;48.148;16.326;2023-06-24T02:10:23;18.00;1.00
10566;DHT22;5331;48.148;16.326;2023-06-24T02:12:51;18.00;1.00
10566;DHT22;5331;48.148;16.326;2023-06-24T02:15:19;18.10;1.00
10566;DHT22;5331;48.148;16.326;2023-06-24T02:17:49;18.00;1.00
10566;DHT22;5331;48.148;16.326;2023-06-24T02:20:19;18.00;1.00
10566;DHT22;5331;48.148;16.326;2023-06-24T02:22:47;18.00;1.00
10566;DHT22;5331;48.148;16.326;2023-06-24T02:25:14;18.00;1.00
10566;DHT22;5331;48.148;16.326;2023-06-24T02:27:42;17.90;1.00
10566;DHT22;5331;48.148;16.326;2023-06-24T02:30:10;18.00;1.00
10566;DHT22;5331;48.148;16.326;2023-06-24T02:32:37;18.00;1.00
10566;DHT22;5331;48.148;16.326;2023-06-24T02:35:05;17.90;1.00
10566;DHT22;5331;48.148;16.326;2023-06-24T02:37:34;17.80;1.00
10566;DHT22;5331;48.148;16.326;2023-06-24T02:40:01;17.80;1.00
10566;DHT22;5331;48.148;16.326;2023-06-24T02:42:29;17.80;1.00
10566;DHT22;5331;48.148;16.326;2023-06-24T02:44:57;17.80;1.00
10566;DHT22;5331;48.148;16.326;2023-06-24T02:47:24;17.80;1.00
10566;DHT22;5331;48.148;16.326;2023-06-24T02:49:53;17.80;1.00
10566;DHT22;5331;48.148;16.326;2023-06-24T02:52:22;17.70;1.00
10566;DHT22;5331;48.148;16.326;2023-06-24T02:54:51;17.80;1.00
10566;DHT22;5331;48.148;16.326;2023-06-24T02:57:18;17.70;1.00
10566;DHT22;5331;48.148;16.326;2023-06-24T02:59:45;17.70;1.00
10566;DHT22;5331;48.148;16.326;2023-06-24T03:02:13;17.80;1.00
10566;DHT22;5331;48.148;16.326;2023-06-24T03:04:41;17.80;1.00
10566;DHT22;5331;48.148;16.326;2023-06-24T03:07:10;17.70;1.00
10566;DHT22;5331;48.148;16.326;2023-06-24T03:09:37;17.70;1.00
10566;DHT22;5331;48.148;16.326;2023-06-24T03:12:08;17.60;1.00
10566;DHT22;5331;48.148;16.326;2023-06-24T03:14:35;17.60;1.00
10566;DHT22;5331;48.148;16.326;2023-06-24T03:17:02;17.50;1.00
10566;DHT22;5331;48.148;16.326;2023-06-24T03:19:29;17.50;1.00
10566;DHT22;5331;48.148;16.326;2023-06-24T03:21:56;17.60;1.00
10566;DHT22;5331;48.148;16.326;2023-06-24T03:24:23;17.60;1.00
10566;DHT22;5331;48.148;16.326;2023-06-24T03:26:50;17.50;1.00
10566;DHT22;5331;48.148;16.326;2023-06-24T03:29:23;17.50;1.00
10566;DHT22;5331;48.148;16.326;2023-06-24T03:31:50;17.50;1.00
10566;DHT22;5331;48.148;16.326;2023-06-24T03:34:17;17.50;1.00
10566;DHT22;5331;48.148;16.326;2023-06-24T03:36:44;17.40;1.00
10566;DHT22;5331;48.148;16.326;2023-06-24T03:39:11;17.50;1.00
10566;DHT22;5331;48.148;16.326;2023-06-24T03:41:38;17.40;1.00
10566;DHT22;5331;48.148;16.326;2023-06-24T03:44:05;17.40;1.00
10566;DHT22;5331;48.148;16.326;2023-06-24T03:46:34;17.30;1.00
10566;DHT22;5331;48.148;16.326;2023-06-24T03:49:00;17.30;1.00
10566;DHT22;5331;48.148;16.326;2023-06-24T03:51:27;17.30;1.00
10566;DHT22;5331;48.148;16.326;2023-06-24T03:53:54;17.20;1.00
10566;DHT22;5331;48.148;16.326;2023-06-24T03:56:21;17.30;1.00
10566;DHT22;5331;48.148;16.326;2023-06-24T03:58:48;17.30;1.00
10566;DHT22;5331;48.148;16.326;2023-06-24T04:01:15;17.30;1.00
10566;DHT22;5331;48.148;16.326;2023-06-24T04:03:46;17.30;1.00
10566;DHT22;5331;48.148;16.326;2023-06-24T04:06:13;17.20;1.00
10566;DHT22;5331;48.148;16.326;2023-06-24T04:08:40;17.20;1.00
10566;DHT22;5331;48.148;16.326;2023-06-24T04:11:09;17.20;1.00
10566;DHT22;5331;48.148;16.326;2023-06-24T04:13:37;17.10;1.00
10566;DHT22;5331;48.148;16.326;2023-06-24T04:16:04;17.10;1.00
10566;DHT22;5331;48.148;16.326;2023-06-24T04:18:31;17.10;1.00
10566;DHT22;5331;48.148;16.326;2023-06-24T04:20:59;17.20;1.00
10566;DHT22;5331;48.148;16.326;2023-06-24T04:23:26;17.10;1.00
10566;DHT22;5331;48.148;16.326;2023-06-24T04:25:53;17.20;1.00
10566;DHT22;5331;48.148;16.326;2023-06-24T04:28:20;17.20;1.00
10566;DHT22;5331;48.148;16.326;2023-06-24T04:30:46;17.20;1.00
10566;DHT22;5331;48.148;16.326;2023-06-24T04:33:13;17.20;1.00
10566;DHT22;5331;48.148;16.326;2023-06-24T04:35:40;17.10;1.00
10566;DHT22;5331;48.148;16.326;2023-06-24T04:38:09;17.20;1.00
10566;DHT22;5331;48.148;16.326;2023-06-24T04:40:36;17.30;1.00
10566;DHT22;5331;48.148;16.326;2023-06-24T04:43:02;17.30;1.00
10566;DHT22;5331;48.148;16.326;2023-06-24T04:45:29;17.30;1.00
10566;DHT22;5331;48.148;16.326;2023-06-24T04:47:56;17.30;1.00
10566;DHT22;5331;48.148;16.326;2023-06-24T04:50:23;17.20;1.00
10566;DHT22;5331;48.148;16.326;2023-06-24T04:52:53;17.20;1.00
10566;DHT22;5331;48.148;16.326;2023-06-24T04:55:23;17.20;1.00
10566;DHT22;5331;48.148;16.326;2023-06-24T04:57:50;17.20;1.00
10566;DHT22;5331;48.148;16.326;2023-06-24T05:00:17;17.20;1.00
10566;DHT22;5331;48.148;16.326;2023-06-24T05:02:44;17.10;1.00
10566;DHT22;5331;48.148;16.326;2023-06-24T05:05:11;17.10;1.00
10566;DHT22;5331;48.148;16.326;2023-06-24T05:07:38;17.10;1.00
10566;DHT22;5331;48.148;16.326;2023-06-24T05:10:06;17.20;1.00
10566;DHT22;5331;48.148;16.326;2023-06-24T05:12:34;17.20;1.00
10566;DHT22;5331;48.148;16.326;2023-06-24T05:15:01;17.10;1.00
10566;DHT22;5331;48.148;16.326;2023-06-24T05:17:28;17.10;1.00
10566;DHT22;5331;48.148;16.326;2023-06-24T05:19:55;17.10;1.00
10566;DHT22;5331;48.148;16.326;2023-06-24T05:22:22;17.10;1.00
10566;DHT22;5331;48.148;16.326;2023-06-24T05:24:49;17.10;1.00
10566;DHT22;5331;48.148;16.326;2023-06-24T05:27:16;17.10;1.00
10566;DHT22;5331;48.148;16.326;2023-06-24T05:29:45;17.20;1.00
10566;DHT22;5331;48.148;16.326;2023-06-24T05:32:12;17.20;1.00
10566;DHT22;5331;48.148;16.326;2023-06-24T05:34:39;17.20;1.00
10566;DHT22;5331;48.148;16.326;2023-06-24T05:37:06;17.20;1.00
10566;DHT22;5331;48.148;16.326;2023-06-24T05:39:33;17.30;1.00
10566;DHT22;5331;48.148;16.326;2023-06-24T05:41:59;17.20;1.00
10566;DHT22;5331;48.148;16.326;2023-06-24T05:44:26;17.20;1.00
10566;DHT22;5331;48.148;16.326;2023-06-24T05:46:55;17.30;1.00
10566;DHT22;5331;48.148;16.326;2023-06-24T05:49:21;17.40;1.00
10566;DHT22;5331;48.148;16.326;2023-06-24T05:51:49;17.40;1.00
10566;DHT22;5331;48.148;16.326;2023-06-24T05:54:15;17.60;1.00
10566;DHT22;5331;48.148;16.326;2023-06-24T05:56:43;17.70;1.00
10566;DHT22;5331;48.148;16.326;2023-06-24T05:59:10;17.60;1.00
10566;DHT22;5331;48.148;16.326;2023-06-24T06:01:36;17.60;1.00
10566;DHT22;5331;48.148;16.326;2023-06-24T06:04:05;17.70;1.00
10566;DHT22;5331;48.148;16.326;2023-06-24T06:06:32;17.60;1.00
10566;DHT22;5331;48.148;16.326;2023-06-24T06:08:59;17.60;1.00
10566;DHT22;5331;48.148;16.326;2023-06-24T06:11:26;17.50;1.00
10566;DHT22;5331;48.148;16.326;2023-06-24T06:13:53;17.50;1.00
10566;DHT22;5331;48.148;16.326;2023-06-24T06:16:20;17.50;1.00
10566;DHT22;5331;48.148;16.326;2023-06-24T06:18:47;17.50;1.00
10566;DHT22;5331;48.148;16.326;2023-06-24T06:21:15;17.50;1.00
10566;DHT22;5331;48.148;16.326;2023-06-24T06:23:42;17.40;1.00
10566;DHT22;5331;48.148;16.326;2023-06-24T06:26:09;17.50;1.00
10566;DHT22;5331;48.148;16.326;2023-06-24T06:28:36;17.40;1.00
10566;DHT22;5331;48.148;16.326;2023-06-24T06:31:03;17.50;1.00
10566;DHT22;5331;48.148;16.326;2023-06-24T06:33:30;17.40;1.00
10566;DHT22;5331;48.148;16.326;2023-06-24T06:35:56;17.30;1.00
10566;DHT22;5331;48.148;16.326;2023-06-24T06:38:26;17.40;1.00
10566;DHT22;5331;48.148;16.326;2023-06-24T06:40:53;17.30;1.00
10566;DHT22;5331;48.148;16.326;2023-06-24T06:43:20;17.30;1.00
10566;DHT22;5331;48.148;16.326;2023-06-24T06:45:47;17.30;1.00
10566;DHT22;5331;48.148;16.326;2023-06-24T06:48:14;17.30;1.00
10566;DHT22;5331;48.148;16.326;2023-06-24T06:50:40;17.50;1.00
10566;DHT22;5331;48.148;16.326;2023-06-24T06:53:07;17.40;1.00
10566;DHT22;5331;48.148;16.326;2023-06-24T06:55:36;17.50;1.00
10566;DHT22;5331;48.148;16.326;2023-06-24T06:58:04;17.50;1.00
10566;DHT22;5331;48.148;16.326;2023-06-24T07:00:31;17.50;1.00
10566;DHT22;5331;48.148;16.326;2023-06-24T07:02:58;17.50;1.00
10566;DHT22;5331;48.148;16.326;2023-06-24T07:05:25;17.50;1.00
10566;DHT22;5331;48.148;16.326;2023-06-24T07:07:52;17.30;1.00
10566;DHT22;5331;48.148;16.326;2023-06-24T07:10:19;17.20;1.00
10566;DHT22;5331;48.148;16.326;2023-06-24T07:12:47;17.20;1.00
10566;DHT22;5331;48.148;16.326;2023-06-24T07:15:14;17.10;1.00
10566;DHT22;5331;48.148;16.326;2023-06-24T07:17:44;17.10;1.00
10566;DHT22;5331;48.148;16.326;2023-06-24T07:20:11;17.10;1.00
10566;DHT22;5331;48.148;16.326;2023-06-24T07:22:38;17.10;1.00
10566;DHT22;5331;48.148;16.326;2023-06-24T07:25:06;17.10;1.00
10566;DHT22;5331;48.148;16.326;2023-06-24T07:27:33;17.20;1.00
10566;DHT22;5331;48.148;16.326;2023-06-24T07:30:01;17.20;1.00
10566;DHT22;5331;48.148;16.326;2023-06-24T07:32:28;17.30;1.00
10566;DHT22;5331;48.148;16.326;2023-06-24T07:34:55;17.40;1.00
10566;DHT22;5331;48.148;16.326;2023-06-24T07:37:22;17.60;1.00
10566;DHT22;5331;48.148;16.326;2023-06-24T07:39:49;17.80;1.00
10566;DHT22;5331;48.148;16.326;2023-06-24T07:42:16;17.90;1.00
10566;DHT22;5331;48.148;16.326;2023-06-24T07:44:44;17.90;1.00
10566;DHT22;5331;48.148;16.326;2023-06-24T07:47:12;18.00;1.00
10566;DHT22;5331;48.148;16.326;2023-06-24T07:49:39;18.00;1.00
10566;DHT22;5331;48.148;16.326;2023-06-24T07:52:06;18.10;1.00
10566;DHT22;5331;48.148;16.326;2023-06-24T07:54:34;18.20;1.00
10566;DHT22;5331;48.148;16.326;2023-06-24T07:57:01;18.20;1.00
10566;DHT22;5331;48.148;16.326;2023-06-24T07:59:28;18.10;1.00
10566;DHT22;5331;48.148;16.326;2023-06-24T08:01:55;18.10;1.00
10566;DHT22;5331;48.148;16.326;2023-06-24T08:04:23;18.00;1.00
10566;DHT22;5331;48.148;16.326;2023-06-24T08:06:50;18.20;1.00
10566;DHT22;5331;48.148;16.326;2023-06-24T08:09:17;18.30;1.00
10566;DHT22;5331;48.148;16.326;2023-06-24T08:11:44;18.40;1.00
10566;DHT22;5331;48.148;16.326;2023-06-24T08:14:11;18.40;1.00
10566;DHT22;5331;48.148;16.326;2023-06-24T08:16:38;18.40;1.00
10566;DHT22;5331;48.148;16.326;2023-06-24T08:19:05;18.40;1.00
10566;DHT22;5331;48.148;16.326;2023-06-24T08:21:33;18.40;1.00
10566;DHT22;5331;48.148;16.326;2023-06-24T08:24:00;18.50;1.00
10566;DHT22;5331;48.148;16.326;2023-06-24T08:26:27;18.40;1.00
10566;DHT22;5331;48.148;16.326;2023-06-24T08:28:54;18.30;1.00
10566;DHT22;5331;48.148;16.326;2023-06-24T08:31:21;18.30;1.00
10566;DHT22;5331;48.148;16.326;2023-06-24T08:33:52;18.30;1.00
10566;DHT22;5331;48.148;16.326;2023-06-24T08:36:21;18.20;1.00
10566;DHT22;5331;48.148;16.326;2023-06-24T08:38:50;18.30;1.00
10566;DHT22;5331;48.148;16.326;2023-06-24T08:41:17;18.30;1.00
10566;DHT22;5331;48.148;16.326;2023-06-24T08:43:43;18.20;1.00
10566;DHT22;5331;48.148;16.326;2023-06-24T08:46:11;18.30;1.00
10566;DHT22;5331;48.148;16.326;2023-06-24T08:48:39;18.20;1.00
10566;DHT22;5331;48.148;16.326;2023-06-24T08:51:09;18.10;1.00
10566;DHT22;5331;48.148;16.326;2023-06-24T08:53:39;18.20;1.00
10566;DHT22;5331;48.148;16.326;2023-06-24T08:56:10;18.20;1.00
10566;DHT22;5331;48.148;16.326;2023-06-24T08:58:37;18.20;1.00
10566;DHT22;5331;48.148;16.326;2023-06-24T09:01:06;18.30;1.00
10566;DHT22;5331;48.148;16.326;2023-06-24T09:03:33;18.30;1.00
10566;DHT22;5331;48.148;16.326;2023-06-24T09:06:01;18.30;1.00
10566;DHT22;5331;48.148;16.326;2023-06-24T09:08:27;18.30;1.00
10566;DHT22;5331;48.148;16.326;2023-06-24T09:10:55;18.30;1.00
10566;DHT22;5331;48.148;16.326;2023-06-24T09:13:28;18.30;1.00
10566;DHT22;5331;48.148;16.326;2023-06-24T09:16:11;18.30;1.00
10566;DHT22;5331;48.148;16.326;2023-06-24T09:18:40;18.30;1.00
10566;DHT22;5331;48.148;16.326;2023-06-24T09:21:10;18.30;1.00
10566;DHT22;5331;48.148;16.326;2023-06-24T09:23:37;18.30;1.00
10566;DHT22;5331;48.148;16.326;2023-06-24T09:26:08;18.30;1.00
10566;DHT22;5331;48.148;16.326;2023-06-24T09:28:37;18.30;1.00
10566;DHT22;5331;48.148;16.326;2023-06-24T09:31:06;18.30;1.00
10566;DHT22;5331;48.148;16.326;2023-06-24T09:33:33;18.30;1.00
10566;DHT22;5331;48.148;16.326;2023-06-24T09:36:05;18.30;1.00
10566;DHT22;5331;48.148;16.326;2023-06-24T09:38:34;18.30;1.00
10566;DHT22;5331;48.148;16.326;2023-06-24T09:41:02;18.20;1.00
10566;DHT22;5331;48.148;16.326;2023-06-24T09:43:30;18.10;1.00
10566;DHT22;5331;48.148;16.326;2023-06-24T09:45:59;18.20;1.00
10566;DHT22;5331;48.148;16.326;2023-06-24T09:48:27;18.20;1.00
10566;DHT22;5331;48.148;16.326;2023-06-24T09:50:55;18.20;1.00
10566;DHT22;5331;48.148;16.326;2023-06-24T09:53:22;18.30;1.00
10566;DHT22;5331;48.148;16.326;2023-06-24T09:55:50;18.30;1.00
10566;DHT22;5331;48.148;16.326;2023-06-24T09:58:19;18.40;1.00
10566;DHT22;5331;48.148;16.326;2023-06-24T10:00:47;18.50;1.00
10566;DHT22;5331;48.148;16.326;2023-06-24T10:03:16;18.60;1.00
10566;DHT22;5331;48.148;16.326;2023-06-24T10:05:43;18.60;1.00
10566;DHT22;5331;48.148;16.326;2023-06-24T10:08:12;18.50;1.00
10566;DHT22;5331;48.148;16.326;2023-06-24T10:10:40;18.50;1.00
10566;DHT22;5331;48.148;16.326;2023-06-24T10:13:07;18.50;1.00
10566;DHT22;5331;48.148;16.326;2023-06-24T10:15:35;18.40;1.00
10566;DHT22;5331;48.148;16.326;2023-06-24T10:18:02;18.30;1.00
10566;DHT22;5331;48.148;16.326;2023-06-24T10:20:36;18.30;1.00
10566;DHT22;5331;48.148;16.326;2023-06-24T10:23:06;18.20;1.00
10566;DHT22;5331;48.148;16.326;2023-06-24T10:25:35;18.10;1.00
10566;DHT22;5331;48.148;16.326;2023-06-24T10:28:03;18.10;1.00
10566;DHT22;5331;48.148;16.326;2023-06-24T10:30:30;18.00;1.00
10566;DHT22;5331;48.148;16.326;2023-06-24T10:32:58;17.90;1.00
10566;DHT22;5331;48.148;16.326;2023-06-24T10:35:26;17.80;1.00
10566;DHT22;5331;48.148;16.326;2023-06-24T10:37:58;17.80;1.00
10566;DHT22;5331;48.148;16.326;2023-06-24T10:40:35;17.70;1.00
10566;DHT22;5331;48.148;16.326;2023-06-24T10:43:24;17.70;1.00
10566;DHT22;5331;48.148;16.326;2023-06-24T10:45:52;17.70;1.00
10566;DHT22;5331;48.148;16.326;2023-06-24T10:48:20;17.80;1.00
10566;DHT22;5331;48.148;16.326;2023-06-24T10:50:47;17.90;1.00
10566;DHT22;5331;48.148;16.326;2023-06-24T10:53:16;17.90;1.00
10566;DHT22;5331;48.148;16.326;2023-06-24T10:55:45;18.00;1.00
10566;DHT22;5331;48.148;16.326;2023-06-24T10:58:13;17.90;1.00
10566;DHT22;5331;48.148;16.326;2023-06-24T11:00:41;17.90;1.00
10566;DHT22;5331;48.148;16.326;2023-06-24T11:03:09;17.90;1.00
10566;DHT22;5331;48.148;16.326;2023-06-24T11:05:38;18.00;1.00
10566;DHT22;5331;48.148;16.326;2023-06-24T11:08:06;17.90;1.00
10566;DHT22;5331;48.148;16.326;2023-06-24T11:10:42;17.90;1.00
10566;DHT22;5331;48.148;16.326;2023-06-24T11:13:10;17.90;1.00
10566;DHT22;5331;48.148;16.326;2023-06-24T11:15:38;17.90;1.00
10566;DHT22;5331;48.148;16.326;2023-06-24T11:18:08;17.90;1.00
10566;DHT22;5331;48.148;16.326;2023-06-24T11:20:36;18.00;1.00
10566;DHT22;5331;48.148;16.326;2023-06-24T11:23:06;18.00;1.00
10566;DHT22;5331;48.148;16.326;2023-06-24T11:25:40;18.10;1.00
10566;DHT22;5331;48.148;16.326;2023-06-24T11:28:16;18.20;1.00
10566;DHT22;5331;48.148;16.326;2023-06-24T11:30:44;18.20;1.00
10566;DHT22;5331;48.148;16.326;2023-06-24T11:33:11;18.20;1.00
10566;DHT22;5331;48.148;16.326;2023-06-24T11:35:38;18.20;1.00
10566;DHT22;5331;48.148;16.326;2023-06-24T11:38:05;18.20;1.00
10566;DHT22;5331;48.148;16.326;2023-06-24T11:40:33;18.20;1.00
10566;DHT22;5331;48.148;16.326;2023-06-24T11:43:02;18.30;1.00
10566;DHT22;5331;48.148;16.326;2023-06-24T11:45:29;18.10;1.00
10566;DHT22;5331;48.148;16.326;2023-06-24T11:48:02;18.10;1.00
10566;DHT22;5331;48.148;16.326;2023-06-24T11:50:31;18.10;1.00
10566;DHT22;5331;48.148;16.326;2023-06-24T11:53:00;18.00;1.00
10566;DHT22;5331;48.148;16.326;2023-06-24T11:55:27;18.00;1.00
10566;DHT22;5331;48.148;16.326;2023-06-24T11:57:56;17.90;1.00
10566;DHT22;5331;48.148;16.326;2023-06-24T12:00:26;18.00;1.00
10566;DHT22;5331;48.148;16.326;2023-06-24T12:02:56;17.90;1.00
10566;DHT22;5331;48.148;16.326;2023-06-24T12:05:25;17.90;1.00
10566;DHT22;5331;48.148;16.326;2023-06-24T12:07:56;17.90;1.00
10566;DHT22;5331;48.148;16.326;2023-06-24T12:10:23;17.90;1.00
10566;DHT22;5331;48.148;16.326;2023-06-24T12:12:52;17.80;1.00
10566;DHT22;5331;48.148;16.326;2023-06-24T12:15:19;17.80;1.00
10566;DHT22;5331;48.148;16.326;2023-06-24T12:17:47;17.80;1.00
10566;DHT22;5331;48.148;16.326;2023-06-24T12:20:14;17.80;1.00
10566;DHT22;5331;48.148;16.326;2023-06-24T12:22:43;17.80;1.00
10566;DHT22;5331;48.148;16.326;2023-06-24T12:25:10;17.80;1.00
10566;DHT22;5331;48.148;16.326;2023-06-24T12:27:38;17.90;1.00
10566;DHT22;5331;48.148;16.326;2023-06-24T12:30:08;17.80;1.00
10566;DHT22;5331;48.148;16.326;2023-06-24T12:32:36;17.80;1.00
10566;DHT22;5331;48.148;16.326;2023-06-24T12:35:05;17.80;1.00
10566;DHT22;5331;48.148;16.326;2023-06-24T12:37:34;17.80;1.00
10566;DHT22;5331;48.148;16.326;2023-06-24T12:40:04;17.80;1.00
10566;DHT22;5331;48.148;16.326;2023-06-24T12:42:31;17.90;1.00
10566;DHT22;5331;48.148;16.326;2023-06-24T12:44:59;17.90;1.00
10566;DHT22;5331;48.148;16.326;2023-06-24T12:47:26;18.00;1.00
10566;DHT22;5331;48.148;16.326;2023-06-24T12:49:55;18.00;1.00
10566;DHT22;5331;48.148;16.326;2023-06-24T12:52:23;18.00;1.00
10566;DHT22;5331;48.148;16.326;2023-06-24T12:54:50;18.10;1.00
10566;DHT22;5331;48.148;16.326;2023-06-24T12:57:17;18.10;1.00
10566;DHT22;5331;48.148;16.326;2023-06-24T12:59:44;18.00;1.00
10566;DHT22;5331;48.148;16.326;2023-06-24T13:02:11;18.00;1.00
10566;DHT22;5331;48.148;16.326;2023-06-24T13:04:38;18.00;1.00
10566;DHT22;5331;48.148;16.326;2023-06-24T13:07:06;18.00;1.00
10566;DHT22;5331;48.148;16.326;2023-06-24T13:09:36;18.10;1.00
10566;DHT22;5331;48.148;16.326;2023-06-24T13:12:03;18.00;1.00
10566;DHT22;5331;48.148;16.326;2023-06-24T13:14:31;17.90;1.00
10566;DHT22;5331;48.148;16.326;2023-06-24T13:16:58;17.90;1.00
10566;DHT22;5331;48.148;16.326;2023-06-24T13:19:24;18.00;1.00
10566;DHT22;5331;48.148;16.326;2023-06-24T13:21:51;18.00;1.00
10566;DHT22;5331;48.148;16.326;2023-06-24T13:24:18;18.00;1.00
10566;DHT22;5331;48.148;16.326;2023-06-24T13:26:46;18.10;1.00
10566;DHT22;5331;48.148;16.326;2023-06-24T13:29:13;18.10;1.00
10566;DHT22;5331;48.148;16.326;2023-06-24T13:31:40;18.10;1.00
10566;DHT22;5331;48.148;16.326;2023-06-24T13:34:08;18.10;1.00
10566;DHT22;5331;48.148;16.326;2023-06-24T13:36:35;18.10;1.00
10566;DHT22;5331;48.148;16.326;2023-06-24T13:39:03;18.10;1.00
10566;DHT22;5331;48.148;16.326;2023-06-24T13:41:30;18.30;1.00
10566;DHT22;5331;48.148;16.326;2023-06-24T13:43:59;18.40;1.00
10566;DHT22;5331;48.148;16.326;2023-06-24T13:46:27;18.50;1.00
10566;DHT22;5331;48.148;16.326;2023-06-24T13:48:54;18.50;1.00
10566;DHT22;5331;48.148;16.326;2023-06-24T13:51:21;18.60;1.00
10566;DHT22;5331;48.148;16.326;2023-06-24T13:53:49;18.60;1.00
10566;DHT22;5331;48.148;16.326;2023-06-24T13:56:17;18.60;1.00
10566;DHT22;5331;48.148;16.326;2023-06-24T13:58:43;18.70;1.00
10566;DHT22;5331;48.148;16.326;2023-06-24T14:01:12;18.60;1.00
10566;DHT22;5331;48.148;16.326;2023-06-24T14:03:39;18.70;1.00
10566;DHT22;5331;48.148;16.326;2023-06-24T14:06:07;18.60;1.00
10566;DHT22;5331;48.148;16.326;2023-06-24T14:08:34;18.60;1.00
10566;DHT22;5331;48.148;16.326;2023-06-24T14:11:01;18.60;1.00
10566;DHT22;5331;48.148;16.326;2023-06-24T14:13:29;18.70;1.00
10566;DHT22;5331;48.148;16.326;2023-06-24T14:15:58;18.60;1.00
10566;DHT22;5331;48.148;16.326;2023-06-24T14:18:39;18.70;1.00
10566;DHT22;5331;48.148;16.326;2023-06-24T14:21:07;18.70;1.00
10566;DHT22;5331;48.148;16.326;2023-06-24T14:23:34;18.70;1.00
10566;DHT22;5331;48.148;16.326;2023-06-24T14:26:01;18.60;1.00
10566;DHT22;5331;48.148;16.326;2023-06-24T14:28:28;18.60;1.00
10566;DHT22;5331;48.148;16.326;2023-06-24T14:30:55;18.70;1.00
10566;DHT22;5331;48.148;16.326;2023-06-24T14:33:22;18.70;1.00
10566;DHT22;5331;48.148;16.326;2023-06-24T14:35:50;18.70;1.00
10566;DHT22;5331;48.148;16.326;2023-06-24T14:38:17;18.80;1.00
10566;DHT22;5331;48.148;16.326;2023-06-24T14:40:44;18.90;1.00
10566;DHT22;5331;48.148;16.326;2023-06-24T14:43:12;18.90;1.00
10566;DHT22;5331;48.148;16.326;2023-06-24T14:45:39;19.00;1.00
10566;DHT22;5331;48.148;16.326;2023-06-24T14:48:06;19.10;1.00
10566;DHT22;5331;48.148;16.326;2023-06-24T14:50:32;19.20;1.00
10566;DHT22;5331;48.148;16.326;2023-06-24T14:53:03;19.30;1.00
10566;DHT22;5331;48.148;16.326;2023-06-24T14:55:30;19.50;1.00
10566;DHT22;5331;48.148;16.326;2023-06-24T14:57:57;19.60;1.00
10566;DHT22;5331;48.148;16.326;2023-06-24T15:00:24;19.60;1.00
10566;DHT22;5331;48.148;16.326;2023-06-24T15:02:51;19.70;1.00
10566;DHT22;5331;48.148;16.326;2023-06-24T15:05:18;19.80;1.00
10566;DHT22;5331;48.148;16.326;2023-06-24T15:07:45;19.80;1.00
10566;DHT22;5331;48.148;16.326;2023-06-24T15:10:13;19.80;1.00
10566;DHT22;5331;48.148;16.326;2023-06-24T15:12:40;19.90;1.00
10566;DHT22;5331;48.148;16.326;2023-06-24T15:15:07;19.90;1.00
10566;DHT22;5331;48.148;16.326;2023-06-24T15:17:34;20.00;1.00
10566;DHT22;5331;48.148;16.326;2023-06-24T15:20:06;20.00;1.00
10566;DHT22;5331;48.148;16.326;2023-06-24T15:22:33;19.90;1.00
10566;DHT22;5331;48.148;16.326;2023-06-24T15:25:00;20.10;1.00
10566;DHT22;5331;48.148;16.326;2023-06-24T15:27:29;20.20;1.00
10566;DHT22;5331;48.148;16.326;2023-06-24T15:29:55;20.30;1.00
10566;DHT22;5331;48.148;16.326;2023-06-24T15:32:22;20.20;1.00
10566;DHT22;5331;48.148;16.326;2023-06-24T15:34:49;20.30;1.00
10566;DHT22;5331;48.148;16.326;2023-06-24T15:37:16;20.20;1.00
10566;DHT22;5331;48.148;16.326;2023-06-24T15:39:43;20.20;1.00
10566;DHT22;5331;48.148;16.326;2023-06-24T15:42:10;20.20;1.00
10566;DHT22;5331;48.148;16.326;2023-06-24T15:44:39;20.20;1.00
10566;DHT22;5331;48.148;16.326;2023-06-24T15:47:06;20.20;1.00
10566;DHT22;5331;48.148;16.326;2023-06-24T15:49:32;20.30;1.00
10566;DHT22;5331;48.148;16.326;2023-06-24T15:51:59;20.30;1.00
10566;DHT22;5331;48.148;16.326;2023-06-24T15:54:26;20.20;1.00